Time;durP1;ratioP1;P1;durP2;ratioP2;P2;SDS_P1;SDS_P2;PMS_P1;PMS_P2;Temp;Humidity;BMP_temperature;BMP_pressure;BME280_temperature;BME280_humidity;BME280_pressure;Samples;Min_cycle;Max_cycle;Signal;HPM_P1;HPM_P2
2023/09/12 00:00:48;;;;;;;49.08;35.22;;;20.30;99.90;;;;;;5072692;28;20064;-81
2023/09/12 00:03:14;;;;;;;48.80;35.40;;;20.30;99.90;;;;;;5085144;28;20031;-81
2023/09/12 00:05:40;;;;;;;49.03;37.80;;;20.20;99.90;;;;;;5113981;28;20065;-81
2023/09/12 00:08:06;;;;;;;49.70;37.15;;;20.20;99.90;;;;;;5086650;28;20035;-82
2023/09/12 00:10:32;;;;;;;52.83;36.80;;;20.20;99.90;;;;;;5056237;28;20036;-81
2023/09/12 00:13:02;;;;;;;45.33;35.08;;;20.10;99.90;;;;;;5087804;28;20036;-81
2023/09/12 00:15:28;;;;;;;48.60;34.53;;;20.10;99.90;;;;;;5061485;23;20060;-81
2023/09/12 00:17:53;;;;;;;46.00;34.75;;;20.10;99.90;;;;;;5036216;28;20041;-81
2023/09/12 00:20:19;;;;;;;48.83;36.63;;;20.10;99.90;;;;;;5049545;28;20051;-81
2023/09/12 00:22:50;;;;;;;48.55;35.72;;;20.10;99.90;;;;;;5021900;28;20091;-81
2023/09/12 00:25:16;;;;;;;50.40;35.67;;;20.10;99.90;;;;;;5033051;28;20041;-81
2023/09/12 00:27:42;;;;;;;52.70;39.05;;;20.10;99.90;;;;;;5032360;28;20048;-81
2023/09/12 00:30:08;;;;;;;54.65;38.65;;;20.10;99.90;;;;;;5031463;28;20029;-81
2023/09/12 00:32:34;;;;;;;51.08;36.08;;;20.00;99.90;;;;;;5012589;28;20393;-81
2023/09/12 00:34:59;;;;;;;51.10;37.97;;;20.00;99.90;;;;;;5042962;28;20038;-81
2023/09/12 00:37:25;;;;;;;54.08;37.17;;;19.90;99.90;;;;;;5014950;28;20128;-81
2023/09/12 00:39:51;;;;;;;57.53;39.25;;;19.90;99.90;;;;;;5014633;28;20033;-81
2023/09/12 00:42:16;;;;;;;50.97;36.80;;;19.90;99.90;;;;;;5014634;28;20049;-81
2023/09/12 00:44:42;;;;;;;55.53;37.80;;;19.90;99.90;;;;;;5030826;28;20461;-81
2023/09/12 00:47:10;;;;;;;50.70;37.78;;;19.90;99.90;;;;;;5030236;28;20034;-81
2023/09/12 00:49:36;;;;;;;53.28;37.03;;;19.90;99.90;;;;;;5014827;28;20120;-81
2023/09/12 00:52:02;;;;;;;47.03;34.97;;;19.90;99.90;;;;;;5014243;28;20483;-81
2023/09/12 00:54:28;;;;;;;48.42;37.80;;;19.90;99.90;;;;;;5033045;28;21051;-82
2023/09/12 00:56:54;;;;;;;51.60;35.92;;;19.90;99.90;;;;;;5016757;28;20054;-81
2023/09/12 00:59:20;;;;;;;51.30;37.50;;;19.90;99.90;;;;;;5031931;28;20041;-81
2023/09/12 01:01:46;;;;;;;48.78;37.10;;;19.90;99.90;;;;;;5066248;28;20487;-81
2023/09/12 01:04:12;;;;;;;49.53;38.58;;;19.90;99.90;;;;;;5032697;28;20075;-80
2023/09/12 01:06:38;;;;;;;53.85;37.58;;;19.90;99.90;;;;;;5015268;28;20037;-81
2023/09/12 01:09:04;;;;;;;55.83;37.75;;;19.80;99.90;;;;;;5016791;28;20049;-81
2023/09/12 01:11:31;;;;;;;54.47;37.20;;;19.80;99.90;;;;;;5016570;28;20116;-82
2023/09/12 01:13:56;;;;;;;52.85;38.85;;;19.80;99.90;;;;;;5016448;28;20049;-81
2023/09/12 01:16:22;;;;;;;54.05;39.47;;;19.80;99.90;;;;;;5016935;28;20485;-81
2023/09/12 01:18:48;;;;;;;55.05;37.88;;;19.70;99.90;;;;;;5016535;28;20040;-82
2023/09/12 01:21:56;;;;;;;51.47;38.80;;;19.70;99.90;;;;;;5022122;28;20126;-82
2023/09/12 01:25:07;;;;;;;48.22;36.42;;;19.70;99.90;;;;;;5007548;28;20095;-82
2023/09/12 01:27:37;;;;;;;45.50;36.40;;;19.60;99.90;;;;;;5013270;28;20053;-82
2023/09/12 01:30:05;;;;;;;50.83;37.28;;;19.50;99.90;;;;;;5016205;28;20071;-82
2023/09/12 01:32:33;;;;;;;44.83;35.33;;;19.60;99.90;;;;;;5011011;28;20069;-81
2023/09/12 01:34:59;;;;;;;50.13;35.55;;;19.50;99.90;;;;;;5026478;28;20481;-81
2023/09/12 01:37:24;;;;;;;51.85;37.63;;;19.50;99.90;;;;;;5009004;28;20044;-81
2023/09/12 01:39:50;;;;;;;47.40;35.72;;;19.50;99.90;;;;;;4976824;28;20029;-81
2023/09/12 01:42:20;;;;;;;49.95;36.30;;;19.50;99.90;;;;;;5012119;28;20037;-81
2023/09/12 01:44:46;;;;;;;60.03;38.67;;;19.50;99.90;;;;;;5028761;28;20049;-81
2023/09/12 01:47:13;;;;;;;53.42;39.25;;;19.50;99.90;;;;;;5004790;28;20624;-82
2023/09/12 01:49:47;;;;;;;65.15;42.28;;;19.50;99.90;;;;;;5023369;28;20037;-81
2023/09/12 01:52:14;;;;;;;55.10;40.00;;;19.40;99.90;;;;;;5010394;28;20037;-83
2023/09/12 01:54:42;;;;;;;53.35;38.58;;;19.40;99.90;;;;;;5029244;28;20038;-81
2023/09/12 01:57:09;;;;;;;61.20;40.72;;;19.30;99.90;;;;;;5014085;28;20041;-81
2023/09/12 01:59:34;;;;;;;57.60;41.22;;;19.30;99.90;;;;;;5038404;28;20072;-82
2023/09/12 02:02:00;;;;;;;58.42;40.05;;;19.30;99.90;;;;;;5008204;28;20071;-82
2023/09/12 02:04:26;;;;;;;56.53;38.88;;;19.30;99.90;;;;;;5029527;28;20060;-82
2023/09/12 02:06:52;;;;;;;50.05;36.75;;;19.30;99.90;;;;;;5013876;28;20856;-82
2023/09/12 02:09:17;;;;;;;52.88;38.38;;;19.30;99.90;;;;;;5007534;28;20065;-82
2023/09/12 02:11:43;;;;;;;54.95;39.72;;;19.30;99.90;;;;;;5024434;28;20082;-82
2023/09/12 02:14:10;;;;;;;59.45;40.38;;;19.30;99.90;;;;;;5011570;28;20045;-82
2023/09/12 02:16:37;;;;;;;53.35;37.83;;;19.30;99.90;;;;;;4995056;28;20044;-82
2023/09/12 02:19:03;;;;;;;55.60;39.70;;;19.20;99.90;;;;;;5013185;28;20103;-82
2023/09/12 02:21:29;;;;;;;75.10;44.70;;;19.20;99.90;;;;;;5029160;28;20046;-82
2023/09/12 02:23:55;;;;;;;87.13;46.53;;;19.20;99.90;;;;;;5013877;28;20052;-81
2023/09/12 02:26:21;;;;;;;100.25;46.95;;;19.20;99.90;;;;;;5028921;28;20409;-82
2023/09/12 02:28:46;;;;;;;93.07;47.25;;;19.20;99.90;;;;;;4991704;28;20068;-82
2023/09/12 02:31:12;;;;;;;81.97;47.15;;;19.20;99.90;;;;;;5013273;28;20468;-82
2023/09/12 02:33:39;;;;;;;114.07;47.95;;;19.20;99.90;;;;;;5028711;28;20112;-82
2023/09/12 02:36:05;;;;;;;80.78;48.95;;;19.20;99.90;;;;;;5007399;28;20037;-82
2023/09/12 02:38:32;;;;;;;195.57;53.35;;;19.20;99.90;;;;;;5029017;28;20133;-81
2023/09/12 02:40:58;;;;;;;128.52;47.15;;;19.20;99.90;;;;;;5029406;28;20116;-82
2023/09/12 02:43:23;;;;;;;186.90;53.70;;;19.20;99.90;;;;;;5009143;28;20033;-82
2023/09/12 02:45:49;;;;;;;301.30;52.78;;;19.20;99.90;;;;;;5010239;28;20080;-82
2023/09/12 02:48:15;;;;;;;251.85;52.15;;;19.20;99.90;;;;;;5012132;28;20560;-82
2023/09/12 02:50:41;;;;;;;87.88;47.95;;;19.20;99.90;;;;;;5012727;28;20500;-82
2023/09/12 02:53:06;;;;;;;129.23;52.25;;;19.10;99.90;;;;;;5013411;28;20037;-82
2023/09/12 02:55:33;;;;;;;155.25;48.97;;;19.10;99.90;;;;;;5028066;28;20041;-82
2023/09/12 02:57:59;;;;;;;141.50;49.05;;;19.10;99.90;;;;;;5033620;28;20084;-82
2023/09/12 03:00:24;;;;;;;135.05;50.50;;;19.10;99.90;;;;;;5017892;28;20404;-81
2023/09/12 03:02:50;;;;;;;241.93;51.33;;;19.10;99.90;;;;;;5033457;28;20057;-82
2023/09/12 03:05:16;;;;;;;596.50;66.43;;;19.10;99.90;;;;;;5033990;28;20069;-82
2023/09/12 03:07:41;;;;;;;222.25;49.95;;;19.20;99.90;;;;;;5017873;28;20041;-82
2023/09/12 03:10:08;;;;;;;640.42;66.07;;;19.10;99.90;;;;;;5001495;28;20053;-82
2023/09/12 03:12:36;;;;;;;404.20;56.10;;;19.20;99.90;;;;;;5018145;28;20400;-82
2023/09/12 03:15:02;;;;;;;470.63;53.40;;;19.10;99.90;;;;;;5013183;28;20132;-81
2023/09/12 03:17:28;;;;;;;557.15;58.30;;;19.00;99.90;;;;;;5024345;28;20501;-82
2023/09/12 03:19:54;;;;;;;255.45;50.00;;;19.00;99.90;;;;;;5031475;28;20503;-81
2023/09/12 03:22:20;;;;;;;516.03;55.20;;;19.00;99.90;;;;;;5033517;28;20041;-82
2023/09/12 03:24:46;;;;;;;488.02;57.22;;;18.90;99.90;;;;;;5016677;28;20073;-81
2023/09/12 03:27:11;;;;;;;325.85;49.28;;;18.90;99.90;;;;;;5033862;28;20044;-82
2023/09/12 03:29:37;;;;;;;647.38;66.28;;;18.90;99.90;;;;;;5015884;28;20409;-81
2023/09/12 03:32:03;;;;;;;397.30;47.72;;;18.90;99.90;;;;;;5017677;28;20033;-81
2023/09/12 03:34:29;;;;;;;607.35;60.75;;;18.80;99.90;;;;;;5033706;28;20081;-81
2023/09/12 03:36:55;;;;;;;638.97;66.03;;;18.80;99.90;;;;;;5017507;28;20041;-81
2023/09/12 03:39:20;;;;;;;424.67;52.92;;;18.70;99.90;;;;;;5049726;28;20045;-81
2023/09/12 03:41:46;;;;;;;556.30;60.03;;;18.70;99.90;;;;;;5033954;28;20041;-82
2023/09/12 03:44:12;;;;;;;377.17;52.03;;;18.70;99.90;;;;;;5033116;28;20406;-82
2023/09/12 03:46:37;;;;;;;765.15;71.70;;;18.70;99.90;;;;;;5013809;28;20116;-82
2023/09/12 03:49:03;;;;;;;315.15;51.83;;;18.70;99.90;;;;;;5031699;28;20550;-82
2023/09/12 03:51:29;;;;;;;501.05;59.17;;;18.70;99.90;;;;;;5032863;28;20063;-82
2023/09/12 03:53:54;;;;;;;411.67;55.35;;;18.70;99.90;;;;;;5000277;28;20048;-81
2023/09/12 03:56:20;;;;;;;371.75;54.53;;;18.70;99.90;;;;;;5032763;28;20040;-81
2023/09/12 03:58:46;;;;;;;346.48;54.13;;;18.70;99.90;;;;;;5016006;28;20048;-81
2023/09/12 04:01:12;;;;;;;457.58;58.40;;;18.70;99.90;;;;;;5016753;28;20053;-82
2023/09/12 04:03:38;;;;;;;216.38;50.83;;;18.70;99.90;;;;;;4999768;28;20484;-81
2023/09/12 04:06:04;;;;;;;308.13;50.35;;;18.70;99.90;;;;;;5031751;28;20396;-81
2023/09/12 04:08:30;;;;;;;295.70;53.13;;;18.70;99.90;;;;;;5012825;28;20125;-81
2023/09/12 04:10:55;;;;;;;488.73;57.00;;;18.60;99.90;;;;;;5028017;28;20109;-82
2023/09/12 04:13:21;;;;;;;402.05;56.78;;;18.60;99.90;;;;;;5012237;28;20044;-82
2023/09/12 04:15:47;;;;;;;238.68;48.20;;;18.60;99.90;;;;;;5004079;28;20053;-81
2023/09/12 04:18:13;;;;;;;238.32;47.67;;;18.50;99.90;;;;;;5015983;28;20417;-81
2023/09/12 04:20:39;;;;;;;233.98;50.65;;;18.50;99.90;;;;;;5016562;28;20396;-81
2023/09/12 04:23:04;;;;;;;141.00;46.33;;;18.50;99.90;;;;;;5015070;28;20041;-81
2023/09/12 04:25:30;;;;;;;140.25;46.95;;;18.50;99.90;;;;;;5014318;28;20045;-82
2023/09/12 04:27:57;;;;;;;199.70;49.25;;;18.60;99.90;;;;;;5016582;28;20038;-82
2023/09/12 04:30:22;;;;;;;116.72;46.55;;;18.50;99.90;;;;;;5031205;28;20116;-82
2023/09/12 04:32:48;;;;;;;86.68;44.13;;;18.60;99.90;;;;;;5033333;28;20076;-82
2023/09/12 04:35:14;;;;;;;342.65;50.22;;;18.60;99.90;;;;;;4999611;28;20048;-81
2023/09/12 04:37:39;;;;;;;97.70;46.42;;;18.60;99.90;;;;;;5016793;28;20080;-81
2023/09/12 04:40:07;;;;;;;122.50;48.00;;;18.60;99.90;;;;;;5008982;28;20060;-82
2023/09/12 04:42:33;;;;;;;100.20;46.17;;;18.60;99.90;;;;;;5032507;28;20044;-82
2023/09/12 04:44:59;;;;;;;115.45;46.53;;;18.60;99.90;;;;;;5014947;28;20037;-82
2023/09/12 04:47:24;;;;;;;136.90;46.08;;;18.60;99.90;;;;;;5030363;28;20045;-82
2023/09/12 04:49:50;;;;;;;116.18;45.58;;;18.60;99.90;;;;;;5013952;28;20493;-82
2023/09/12 04:52:16;;;;;;;97.82;44.63;;;18.60;99.90;;;;;;5013550;28;20482;-82
2023/09/12 04:54:42;;;;;;;85.18;43.20;;;18.60;99.90;;;;;;5028549;28;20073;-83
2023/09/12 04:57:08;;;;;;;114.85;42.42;;;18.50;99.90;;;;;;5014696;28;20060;-82
2023/09/12 04:59:33;;;;;;;79.35;42.03;;;18.60;99.90;;;;;;5031800;28;20080;-82
2023/09/12 05:01:59;;;;;;;82.63;39.95;;;18.50;99.90;;;;;;5028134;28;20069;-82
2023/09/12 05:04:25;;;;;;;73.28;40.03;;;18.50;99.90;;;;;;5009718;28;20560;-82
2023/09/12 05:06:51;;;;;;;95.32;42.33;;;18.50;99.90;;;;;;5013404;28;20490;-82
2023/09/12 05:09:16;;;;;;;92.28;37.92;;;18.40;99.90;;;;;;5017993;28;20363;-82
2023/09/12 05:11:42;;;;;;;69.90;38.90;;;18.50;99.90;;;;;;5016627;28;20052;-82
2023/09/12 05:14:08;;;;;;;78.15;40.08;;;18.50;99.90;;;;;;5032427;28;20057;-82
2023/09/12 05:16:34;;;;;;;71.03;38.80;;;18.40;99.90;;;;;;5016619;28;20045;-81
2023/09/12 05:19:00;;;;;;;86.20;41.58;;;18.40;99.90;;;;;;5019636;28;20041;-82
2023/09/12 05:21:25;;;;;;;85.32;40.08;;;18.50;99.90;;;;;;5013462;28;20033;-82
2023/09/12 05:23:51;;;;;;;70.55;40.55;;;18.50;99.90;;;;;;5014085;28;20420;-82
2023/09/12 05:26:17;;;;;;;80.53;42.28;;;18.50;99.90;;;;;;4996264;28;20541;-82
2023/09/12 05:28:42;;;;;;;108.88;42.30;;;18.50;99.90;;;;;;4997527;28;20096;-81
2023/09/12 05:31:08;;;;;;;92.50;43.05;;;18.50;99.90;;;;;;5012886;28;20052;-80
2023/09/12 05:33:34;;;;;;;59.03;41.05;;;18.40;99.90;;;;;;5009549;28;20044;-80
2023/09/12 05:36:01;;;;;;;72.68;38.67;;;18.40;99.90;;;;;;5013137;28;20044;-80
2023/09/12 05:38:26;;;;;;;70.55;40.58;;;18.40;99.90;;;;;;5029099;28;20060;-80
2023/09/12 05:40:52;;;;;;;74.45;40.35;;;18.40;99.90;;;;;;5030614;28;20418;-81
2023/09/12 05:43:18;;;;;;;66.07;40.05;;;18.40;99.90;;;;;;5013610;28;20041;-81
2023/09/12 05:45:44;;;;;;;85.13;41.42;;;18.40;99.90;;;;;;5028950;28;20037;-81
2023/09/12 05:48:10;;;;;;;60.47;37.80;;;18.40;99.90;;;;;;5011664;28;20041;-81
2023/09/12 05:50:39;;;;;;;62.13;40.25;;;18.40;99.90;;;;;;5012944;28;20083;-81
2023/09/12 05:53:05;;;;;;;75.93;41.70;;;18.40;99.90;;;;;;5028468;28;20041;-80
2023/09/12 05:55:31;;;;;;;60.00;38.80;;;18.40;99.90;;;;;;5012258;28;20705;-81
2023/09/12 05:57:56;;;;;;;64.35;40.20;;;18.40;99.90;;;;;;5014082;28;20038;-81
2023/09/12 06:00:22;;;;;;;66.00;41.30;;;18.40;99.90;;;;;;4997885;28;20396;-81
2023/09/12 06:02:48;;;;;;;60.28;39.63;;;18.40;99.90;;;;;;5014908;28;20037;-81
2023/09/12 06:05:15;;;;;;;63.90;39.85;;;18.50;99.90;;;;;;5013424;28;20455;-81
2023/09/12 06:07:41;;;;;;;69.93;42.05;;;18.50;99.90;;;;;;5030312;28;20045;-81
2023/09/12 06:10:08;;;;;;;67.97;42.08;;;18.50;99.90;;;;;;5012638;28;20434;-81
2023/09/12 06:12:35;;;;;;;92.70;42.60;;;18.40;99.90;;;;;;4998852;28;20103;-81
2023/09/12 06:15:03;;;;;;;73.63;43.90;;;18.40;99.90;;;;;;5029565;28;20057;-82
2023/09/12 06:17:30;;;;;;;65.72;41.88;;;18.40;99.90;;;;;;5030913;28;20042;-81
2023/09/12 06:19:56;;;;;;;72.50;42.22;;;18.40;99.90;;;;;;5014433;28;20045;-81
2023/09/12 06:22:22;;;;;;;76.10;44.85;;;18.40;99.90;;;;;;5031308;28;20044;-81
2023/09/12 06:24:49;;;;;;;74.13;43.17;;;18.40;99.90;;;;;;5027952;28;20037;-81
2023/09/12 06:27:21;;;;;;;96.78;48.00;;;18.50;99.90;;;;;;5028596;28;20420;-82
2023/09/12 06:29:50;;;;;;;88.38;47.95;;;18.50;99.90;;;;;;5030417;28;20041;-83
2023/09/12 06:32:17;;;;;;;85.82;48.97;;;18.60;99.90;;;;;;5036069;28;20396;-83
2023/09/12 06:34:43;;;;;;;72.05;44.10;;;18.60;99.90;;;;;;5036059;28;20047;-83
2023/09/12 06:37:11;;;;;;;96.05;52.53;;;18.70;99.90;;;;;;5020008;28;20554;-83
2023/09/12 06:39:37;;;;;;;94.97;50.58;;;18.70;99.90;;;;;;5019165;28;20060;-83
2023/09/12 06:42:03;;;;;;;97.85;51.83;;;18.70;99.90;;;;;;5018386;28;20493;-83
2023/09/12 06:44:29;;;;;;;117.38;56.72;;;18.70;99.90;;;;;;5033460;28;20416;-83
2023/09/12 06:46:54;;;;;;;114.50;58.30;;;18.80;99.90;;;;;;5034230;28;20132;-84
2023/09/12 06:49:20;;;;;;;104.47;55.05;;;18.80;99.90;;;;;;5001130;28;20508;-84
2023/09/12 06:51:46;;;;;;;121.32;55.97;;;18.80;99.90;;;;;;5016825;28;20048;-83
2023/09/12 06:54:12;;;;;;;116.60;57.25;;;18.80;99.90;;;;;;5016291;28;20048;-84
2023/09/12 06:56:38;;;;;;;115.05;56.33;;;18.90;99.90;;;;;;5014626;28;20437;-82
2023/09/12 06:59:04;;;;;;;112.18;58.95;;;18.90;99.90;;;;;;5013953;28;20061;-83
2023/09/12 07:01:30;;;;;;;109.07;57.33;;;18.90;99.90;;;;;;5000037;28;20374;-83
2023/09/12 07:03:56;;;;;;;111.22;56.50;;;19.00;99.90;;;;;;5019959;28;20038;-83
2023/09/12 07:06:22;;;;;;;112.55;57.65;;;19.00;99.90;;;;;;5013969;28;20044;-83
2023/09/12 07:08:48;;;;;;;109.47;58.95;;;19.10;99.90;;;;;;5009425;28;20048;-83
2023/09/12 07:11:14;;;;;;;90.97;51.30;;;19.10;99.90;;;;;;5017251;28;20119;-83
2023/09/12 07:13:40;;;;;;;95.03;54.88;;;19.20;99.90;;;;;;5015931;28;20500;-83
2023/09/12 07:16:06;;;;;;;103.50;55.67;;;19.30;99.90;;;;;;5017133;28;20379;-83
2023/09/12 07:18:35;;;;;;;97.78;55.60;;;19.30;99.90;;;;;;5034105;28;20429;-84
2023/09/12 07:21:03;;;;;;;97.38;53.35;;;19.40;99.90;;;;;;5028235;28;20039;-83
2023/09/12 07:23:29;;;;;;;90.35;53.13;;;19.40;99.90;;;;;;5034202;28;20045;-83
2023/09/12 07:25:59;;;;;;;84.97;51.20;;;19.50;99.90;;;;;;5014701;28;20061;-83
2023/09/12 07:28:26;;;;;;;82.82;51.35;;;19.50;99.90;;;;;;5017550;28;20396;-84
2023/09/12 07:30:53;;;;;;;74.10;47.60;;;19.60;99.90;;;;;;5014881;28;20045;-83
2023/09/12 07:33:18;;;;;;;79.00;50.85;;;19.70;99.90;;;;;;5032924;28;20513;-82
2023/09/12 07:35:44;;;;;;;71.65;48.50;;;19.80;99.90;;;;;;4999666;28;20041;-82
2023/09/12 07:38:10;;;;;;;79.60;49.70;;;19.80;99.90;;;;;;5017680;28;20128;-83
2023/09/12 07:40:35;;;;;;;70.65;48.83;;;19.80;99.90;;;;;;4999876;28;20042;-85
2023/09/12 07:43:02;;;;;;;67.45;45.00;;;19.80;99.90;;;;;;5016247;28;20033;-83
2023/09/12 07:45:29;;;;;;;68.95;47.25;;;19.80;99.90;;;;;;4996678;28;20107;-83
2023/09/12 07:47:55;;;;;;;78.13;51.22;;;19.80;99.90;;;;;;4994396;28;20124;-84
2023/09/12 07:50:21;;;;;;;72.68;47.20;;;19.70;99.90;;;;;;4987075;28;20140;-85
2023/09/12 07:52:46;;;;;;;77.22;49.65;;;19.80;99.90;;;;;;4979976;28;20044;-82
2023/09/12 07:55:12;;;;;;;74.80;49.75;;;19.80;99.90;;;;;;4980136;28;20052;-86
2023/09/12 07:57:38;;;;;;;72.10;48.85;;;19.70;99.90;;;;;;4957985;28;20406;-85
2023/09/12 08:00:10;;;;;;;74.57;49.47;;;19.70;99.90;;;;;;4983515;28;20525;-85
2023/09/12 08:02:36;;;;;;;75.30;50.20;;;19.70;99.90;;;;;;4980135;28;20080;-85
2023/09/12 08:05:02;;;;;;;74.82;50.33;;;19.70;99.90;;;;;;4940689;28;20103;-86
2023/09/12 08:07:28;;;;;;;76.38;49.08;;;19.70;99.90;;;;;;4975556;28;20132;-84
2023/09/12 08:09:57;;;;;;;67.28;46.15;;;19.80;99.90;;;;;;4967595;28;20204;-83
2023/09/12 08:12:24;;;;;;;74.20;48.88;;;19.90;99.90;;;;;;4962472;28;20038;-84
2023/09/12 08:14:49;;;;;;;72.68;48.97;;;19.90;99.90;;;;;;4977696;28;20046;-83
2023/09/12 08:17:16;;;;;;;68.05;46.90;;;20.00;99.90;;;;;;5007768;28;20096;-83
2023/09/12 08:19:42;;;;;;;65.15;46.28;;;20.10;99.90;;;;;;5017879;28;20408;-84
2023/09/12 08:22:09;;;;;;;64.45;44.58;;;20.10;99.90;;;;;;5010417;28;20038;-84
2023/09/12 08:24:36;;;;;;;67.00;45.67;;;20.10;99.90;;;;;;5015599;28;20120;-84
2023/09/12 08:27:02;;;;;;;64.65;47.70;;;20.20;99.90;;;;;;4999543;28;20037;-84
2023/09/12 08:29:32;;;;;;;61.08;45.30;;;20.20;99.90;;;;;;5016015;28;20033;-84
2023/09/12 08:31:58;;;;;;;62.53;42.50;;;20.20;99.90;;;;;;5015727;28;20080;-84
2023/09/12 08:34:24;;;;;;;64.82;46.92;;;20.20;99.90;;;;;;5015131;28;20037;-83
2023/09/12 08:36:51;;;;;;;64.18;45.75;;;20.10;99.90;;;;;;5015573;28;20026;-84
2023/09/12 08:39:22;;;;;;;64.55;45.63;;;20.10;99.90;;;;;;5031362;28;20041;-84
2023/09/12 08:41:49;;;;;;;63.15;42.85;;;20.10;99.90;;;;;;5015316;28;20042;-84
2023/09/12 08:44:15;;;;;;;66.22;45.72;;;20.10;99.90;;;;;;4998321;28;20037;-84
2023/09/12 08:46:42;;;;;;;65.28;46.35;;;20.20;99.90;;;;;;4992674;28;20045;-84
2023/09/12 08:49:09;;;;;;;62.90;45.92;;;20.10;99.90;;;;;;5017149;28;20049;-84
2023/09/12 08:51:37;;;;;;;66.05;47.30;;;20.20;99.90;;;;;;5032583;28;20041;-84
2023/09/12 08:54:04;;;;;;;64.43;45.50;;;20.20;99.90;;;;;;5034996;28;20045;-84
2023/09/12 08:56:30;;;;;;;64.43;45.70;;;20.20;99.90;;;;;;5012035;28;20128;-83
2023/09/12 08:58:58;;;;;;;59.45;45.08;;;20.30;99.90;;;;;;5025633;28;20482;-83
2023/09/12 09:01:27;;;;;;;62.63;44.50;;;20.40;99.90;;;;;;5032967;28;20077;-84
2023/09/12 09:03:53;;;;;;;57.72;44.67;;;20.40;99.90;;;;;;5012492;28;20386;-84
2023/09/12 09:06:21;;;;;;;64.35;46.03;;;20.40;99.90;;;;;;5031002;28;20037;-84
2023/09/12 09:08:49;;;;;;;59.20;44.22;;;20.40;99.90;;;;;;5016149;28;20371;-84
2023/09/12 09:11:14;;;;;;;52.60;40.63;;;20.40;99.90;;;;;;5007893;28;20042;-84
2023/09/12 09:13:40;;;;;;;61.25;43.13;;;20.50;99.90;;;;;;5015898;28;20033;-83
2023/09/12 09:16:10;;;;;;;60.78;44.72;;;20.60;99.90;;;;;;5014445;28;20085;-84
2023/09/12 09:18:52;;;;;;;59.05;45.10;;;20.60;99.90;;;;;;5013399;28;20038;-83
2023/09/12 09:21:19;;;;;;;58.75;43.90;;;20.70;99.90;;;;;;5030902;28;20505;-83
2023/09/12 09:23:46;;;;;;;59.05;46.15;;;20.70;99.90;;;;;;5014490;28;20038;-84
2023/09/12 09:26:12;;;;;;;58.53;44.63;;;20.70;99.90;;;;;;5015211;28;20490;-83
2023/09/12 09:28:39;;;;;;;63.55;45.88;;;20.80;99.90;;;;;;5014595;28;20045;-82
2023/09/12 09:31:09;;;;;;;58.50;45.28;;;20.90;99.90;;;;;;5028066;28;20041;-84
2023/09/12 09:33:36;;;;;;;56.58;44.20;;;21.00;99.90;;;;;;5007604;28;20382;-85
2023/09/12 09:36:04;;;;;;;55.40;44.70;;;21.10;99.90;;;;;;5014337;28;20123;-85
2023/09/12 09:38:30;;;;;;;56.58;43.05;;;21.20;99.90;;;;;;5015864;28;20477;-85
2023/09/12 09:40:56;;;;;;;57.58;43.10;;;21.30;99.90;;;;;;5015236;28;20185;-84
2023/09/12 09:43:22;;;;;;;58.30;43.65;;;21.40;99.90;;;;;;4995399;28;20045;-83
2023/09/12 09:45:48;;;;;;;46.92;36.78;;;21.40;99.90;;;;;;5011701;28;20156;-84
2023/09/12 09:48:21;;;;;;;58.28;43.70;;;21.50;99.90;;;;;;5020684;28;20064;-83
2023/09/12 09:50:48;;;;;;;53.65;42.38;;;21.70;99.90;;;;;;5005546;28;20134;-84
2023/09/12 09:53:14;;;;;;;49.47;39.95;;;21.80;99.90;;;;;;5017252;28;20128;-82
2023/09/12 09:55:40;;;;;;;50.33;40.75;;;21.90;99.90;;;;;;5060504;28;20125;-83
2023/09/12 09:58:06;;;;;;;52.75;40.97;;;21.90;99.90;;;;;;5026020;28;20527;-82
2023/09/12 10:00:36;;;;;;;48.47;39.75;;;22.10;99.90;;;;;;5013870;28;20038;-83
2023/09/12 10:03:04;;;;;;;48.25;39.45;;;22.20;99.90;;;;;;5031212;28;20067;-81
2023/09/12 10:05:32;;;;;;;53.78;38.00;;;22.30;99.90;;;;;;5028197;28;20393;-82
2023/09/12 10:08:00;;;;;;;40.75;34.80;;;22.50;99.90;;;;;;5026108;28;20044;-84
2023/09/12 10:10:28;;;;;;;43.17;30.92;;;22.60;99.90;;;;;;5031701;28;20049;-84
2023/09/12 10:12:57;;;;;;;37.20;30.05;;;22.70;99.90;;;;;;5031430;28;20041;-82
2023/09/12 10:15:26;;;;;;;38.85;29.60;;;22.70;99.90;;;;;;5030335;28;20080;-83
2023/09/12 10:18:01;;;;;;;38.53;28.17;;;22.70;99.90;;;;;;5023824;28;20050;-83
2023/09/12 10:20:52;;;;;;;34.70;23.77;;;22.80;99.90;;;;;;5015269;28;20046;-83
2023/09/12 10:23:36;;;;;;;39.67;28.63;;;22.80;99.90;;;;;;5014712;28;20046;-82
2023/09/12 10:26:03;;;;;;;42.03;28.55;;;22.90;99.90;;;;;;5030299;28;20084;-83
2023/09/12 10:28:29;;;;;;;36.13;26.55;;;22.90;99.90;;;;;;5033852;28;20033;-82
2023/09/12 10:30:59;;;;;;;28.55;22.13;;;23.00;99.90;;;;;;5018505;28;20101;-84
2023/09/12 10:33:26;;;;;;;30.02;19.77;;;23.00;99.90;;;;;;5028292;28;20045;-84
2023/09/12 10:35:53;;;;;;;29.27;21.35;;;23.00;99.90;;;;;;5031133;28;20042;-84
2023/09/12 10:38:23;;;;;;;28.80;20.33;;;22.90;99.90;;;;;;5010945;28;20563;-84
2023/09/12 10:40:50;;;;;;;29.02;21.38;;;22.90;99.90;;;;;;5010861;28;20076;-83
2023/09/12 10:43:16;;;;;;;27.33;20.15;;;22.80;99.90;;;;;;5029128;28;20037;-84
2023/09/12 10:45:43;;;;;;;31.88;22.45;;;22.80;99.90;;;;;;5029683;28;20069;-83
2023/09/12 10:48:11;;;;;;;30.77;22.73;;;22.90;99.90;;;;;;5011903;28;20041;-84
2023/09/12 10:50:38;;;;;;;33.20;21.80;;;22.90;99.90;;;;;;5029848;28;20045;-85
2023/09/12 10:53:12;;;;;;;29.13;20.50;;;22.90;99.90;;;;;;5014806;28;20120;-84
2023/09/12 10:55:37;;;;;;;33.88;23.63;;;22.90;99.90;;;;;;5012415;28;20044;-83
2023/09/12 10:58:05;;;;;;;33.30;24.60;;;22.90;99.90;;;;;;5021133;28;20124;-84
2023/09/12 11:00:34;;;;;;;33.35;24.88;;;22.90;99.90;;;;;;5011092;28;20034;-84
2023/09/12 11:03:32;;;;;;;31.77;23.38;;;22.90;99.90;;;;;;5014251;28;20037;-85
2023/09/12 11:05:57;;;;;;;31.33;21.08;;;23.00;99.90;;;;;;4994700;28;20045;-85
2023/09/12 11:08:24;;;;;;;31.50;21.70;;;23.00;99.90;;;;;;5034325;28;20087;-85
2023/09/12 11:11:21;;;;;;;32.30;22.45;;;23.10;99.90;;;;;;5022460;28;20068;-85
2023/09/12 11:14:02;;;;;;;25.08;20.05;;;23.10;99.90;;;;;;5056323;28;20059;-89
2023/09/12 11:16:28;;;;;;;27.98;20.55;;;23.10;99.90;;;;;;5055290;28;20048;-87
2023/09/12 11:19:15;;;;;;;33.92;23.13;;;23.10;99.90;;;;;;5015307;28;20038;-86
2023/09/12 11:21:50;;;;;;;28.98;20.75;;;23.20;99.90;;;;;;5033209;28;20034;-87
2023/09/12 11:24:17;;;;;;;28.05;20.65;;;23.30;99.90;;;;;;5033396;28;20219;-88
2023/09/12 11:27:02;;;;;;;29.17;21.05;;;23.30;99.90;;;;;;5036960;28;20028;-87
2023/09/12 11:29:36;;;;;;;31.77;23.02;;;23.40;99.90;;;;;;5046347;28;20050;-85
2023/09/12 11:32:03;;;;;;;29.63;23.52;;;23.40;99.90;;;;;;5050443;28;20108;-86
2023/09/12 11:34:35;;;;;;;32.45;24.55;;;23.40;99.90;;;;;;5035629;28;20388;-87
2023/09/12 11:37:04;;;;;;;31.80;22.00;;;23.40;99.90;;;;;;5033360;28;20034;-86
2023/09/12 11:39:32;;;;;;;28.70;20.60;;;23.50;99.90;;;;;;5032975;28;20037;-86
2023/09/12 11:41:59;;;;;;;27.90;21.75;;;23.50;99.90;;;;;;5034944;28;20116;-86
2023/09/12 11:44:26;;;;;;;29.98;22.05;;;23.50;99.90;;;;;;5034999;28;20046;-86
2023/09/12 11:46:52;;;;;;;29.40;22.17;;;23.40;99.90;;;;;;5033465;28;20116;-86
2023/09/12 11:49:19;;;;;;;28.80;21.60;;;23.40;99.90;;;;;;5017339;28;20056;-87
2023/09/12 11:51:54;;;;;;;29.67;21.50;;;23.40;99.90;;;;;;5018216;28;20041;-86
2023/09/12 11:54:24;;;;;;;29.55;21.00;;;23.50;99.90;;;;;;5034468;28;20103;-86
2023/09/12 11:56:56;;;;;;;28.30;21.52;;;23.50;99.90;;;;;;5034832;28;20079;-86
2023/09/12 11:59:23;;;;;;;24.55;18.45;;;23.60;99.90;;;;;;5017762;28;20136;-86
2023/09/12 12:01:49;;;;;;;23.85;19.58;;;23.70;99.90;;;;;;5034428;28;20033;-87
2023/09/12 12:04:15;;;;;;;28.40;20.23;;;23.70;99.90;;;;;;5017591;28;20555;-86
2023/09/12 12:06:41;;;;;;;22.63;16.00;;;23.90;99.90;;;;;;5017829;28;20095;-86
2023/09/12 12:09:07;;;;;;;26.70;19.02;;;24.00;99.90;;;;;;5034287;28;20038;-86
2023/09/12 12:11:33;;;;;;;23.15;17.25;;;24.00;99.90;;;;;;5017636;28;20044;-87
2023/09/12 12:14:08;;;;;;;22.33;15.10;;;24.10;99.90;;;;;;5033260;28;20040;-85
2023/09/12 12:16:34;;;;;;;22.80;16.50;;;24.10;99.90;;;;;;5029003;28;20059;-88
2023/09/12 12:19:00;;;;;;;22.88;17.20;;;24.10;99.90;;;;;;5038475;28;20055;-86
2023/09/12 12:21:27;;;;;;;23.98;15.75;;;24.00;99.90;;;;;;5008433;28;20124;-87
2023/09/12 12:24:01;;;;;;;21.73;14.38;;;24.00;99.90;;;;;;5022865;28;20034;-87
2023/09/12 12:26:27;;;;;;;22.90;15.65;;;23.90;99.90;;;;;;5033128;28;20042;-86